createdAt,value
2023-03-16T00:00:53.780Z,941.13
2023-03-16T00:01:53.782Z,941.14
2023-03-16T00:02:53.768Z,941.11
2023-03-16T00:03:53.689Z,941.10
2023-03-16T00:04:53.767Z,941.11
2023-03-16T00:05:53.690Z,941.13
2023-03-16T00:06:53.766Z,941.14
2023-03-16T00:07:53.684Z,941.13
2023-03-16T00:08:53.731Z,941.15
2023-03-16T00:09:53.622Z,941.13
2023-03-16T00:10:53.613Z,941.19
2023-03-16T00:11:53.614Z,941.12
2023-03-16T00:12:53.605Z,941.11
2023-03-16T00:13:53.639Z,941.15
2023-03-16T00:14:53.647Z,941.10
2023-03-16T00:15:53.653Z,941.11
2023-03-16T00:16:53.594Z,941.11
2023-03-16T00:17:53.543Z,941.12
2023-03-16T00:18:53.582Z,941.10
2023-03-16T00:19:53.518Z,941.15
2023-03-16T00:20:53.518Z,941.10
2023-03-16T00:21:53.510Z,941.12
2023-03-16T00:22:53.492Z,941.15
2023-03-16T00:23:53.554Z,941.13
2023-03-16T00:24:53.469Z,941.16
2023-03-16T00:25:53.492Z,941.15
2023-03-16T00:26:53.471Z,941.10
2023-03-16T00:27:53.441Z,941.09
2023-03-16T00:28:53.431Z,941.16
2023-03-16T00:29:53.446Z,941.12
2023-03-16T00:30:53.551Z,941.12
2023-03-16T00:31:53.417Z,941.09
2023-03-16T00:32:53.399Z,941.11
2023-03-16T00:33:53.380Z,941.12
2023-03-16T00:34:53.378Z,941.14
2023-03-16T00:35:53.395Z,941.13
2023-03-16T00:36:53.332Z,941.14
2023-03-16T00:37:53.370Z,941.12
2023-03-16T00:38:53.407Z,941.11
2023-03-16T00:39:53.306Z,941.07
2023-03-16T00:40:53.315Z,941.06
2023-03-16T00:41:53.293Z,941.08
2023-03-16T00:42:53.356Z,941.05
2023-03-16T00:43:53.269Z,941.06
2023-03-16T00:44:53.304Z,941.02
2023-03-16T00:45:53.269Z,940.97
2023-03-16T00:46:58.142Z,940.98
2023-03-16T00:47:53.264Z,941.00
2023-03-16T00:48:53.241Z,941.01
2023-03-16T00:49:53.239Z,941.01
2023-03-16T00:50:53.201Z,941.05
2023-03-16T00:51:53.206Z,941.07
2023-03-16T00:52:54.214Z,941.05
2023-03-16T00:53:53.271Z,941.05
2023-03-16T00:54:53.202Z,941.07
2023-03-16T00:55:53.157Z,941.06
2023-03-16T00:56:53.140Z,941.04
2023-03-16T00:57:53.165Z,941.05
2023-03-16T00:58:53.295Z,941.04
2023-03-16T00:59:53.113Z,941.01
2023-03-16T01:00:53.198Z,940.99
2023-03-16T01:01:53.093Z,940.98
2023-03-16T01:02:53.104Z,940.97
2023-03-16T01:03:53.061Z,941.00
2023-03-16T01:04:53.182Z,940.96
2023-03-16T01:05:53.051Z,940.97
2023-03-16T01:06:53.042Z,940.98
2023-03-16T01:07:53.034Z,940.99
2023-03-16T01:08:53.025Z,941.01
2023-03-16T01:09:53.038Z,940.99
2023-03-16T01:10:53.049Z,941.04
2023-03-16T01:11:53.144Z,941.03
2023-03-16T01:12:52.993Z,941.05
2023-03-16T01:13:53.002Z,941.03
2023-03-16T01:14:52.963Z,941.04
2023-03-16T01:15:53.168Z,941.01
2023-03-16T01:16:53.071Z,941.01
2023-03-16T01:17:52.980Z,940.96
2023-03-16T01:18:52.962Z,940.97
2023-03-16T01:19:52.919Z,940.97
2023-03-16T01:20:52.900Z,940.96
2023-03-16T01:21:53.083Z,940.92
2023-03-16T01:22:52.911Z,940.94
2023-03-16T01:23:52.875Z,940.91
2023-03-16T01:24:52.922Z,940.90
2023-03-16T01:25:52.960Z,940.90
2023-03-16T01:26:52.850Z,940.81
2023-03-16T01:27:52.836Z,940.90
2023-03-16T01:28:52.960Z,940.87
2023-03-16T01:29:52.876Z,940.88
2023-03-16T01:30:52.843Z,940.88
2023-03-16T01:31:52.855Z,940.87
2023-03-16T01:32:52.907Z,940.88
2023-03-16T01:33:52.776Z,940.87
2023-03-16T01:34:52.782Z,940.87
2023-03-16T01:35:52.863Z,940.84
2023-03-16T01:36:52.768Z,940.86
2023-03-16T01:37:52.800Z,940.88
2023-03-16T01:38:52.737Z,940.84
2023-03-16T01:39:52.748Z,940.85
2023-03-16T01:40:52.715Z,940.86
2023-03-16T01:41:52.731Z,940.86
2023-03-16T01:42:52.719Z,940.87
2023-03-16T01:43:52.673Z,940.81
2023-03-16T01:44:52.707Z,940.84
2023-03-16T01:45:53.108Z,940.79
2023-03-16T01:46:55.645Z,940.79
2023-03-16T01:47:52.636Z,940.82
2023-03-16T01:48:52.615Z,940.77
2023-03-16T01:49:52.666Z,940.76
2023-03-16T01:50:52.664Z,940.76
2023-03-16T01:51:52.597Z,940.72
2023-03-16T01:52:52.693Z,940.76
2023-03-16T01:53:52.569Z,940.71
2023-03-16T01:54:52.564Z,940.67
2023-03-16T01:55:52.562Z,940.69
2023-03-16T01:56:52.587Z,940.68
2023-03-16T01:57:52.604Z,940.66
2023-03-16T01:58:52.548Z,940.66
2023-03-16T01:59:52.516Z,940.67
2023-03-16T02:00:52.544Z,940.62
2023-03-16T02:01:52.638Z,940.62
2023-03-16T02:02:52.528Z,940.63
2023-03-16T02:03:52.493Z,940.68
2023-03-16T02:04:52.486Z,940.65
2023-03-16T02:05:52.451Z,940.70
2023-03-16T02:06:52.499Z,940.73
2023-03-16T02:07:52.524Z,940.69
2023-03-16T02:08:52.472Z,940.71
2023-03-16T02:09:52.446Z,940.75
2023-03-16T02:10:52.401Z,940.74
2023-03-16T02:11:52.390Z,940.71
2023-03-16T02:12:52.396Z,940.70
2023-03-16T02:13:52.436Z,940.70
2023-03-16T02:14:52.373Z,940.68
2023-03-16T02:15:52.474Z,940.67
2023-03-16T02:16:52.355Z,940.68
2023-03-16T02:17:52.325Z,940.66
2023-03-16T02:18:52.359Z,940.67
2023-03-16T02:19:52.324Z,940.66
2023-03-16T02:20:52.342Z,940.71
2023-03-16T02:21:52.287Z,940.68
2023-03-16T02:22:52.303Z,940.69
2023-03-16T02:23:52.282Z,940.72
2023-03-16T02:24:52.311Z,940.71
2023-03-16T02:25:52.366Z,940.68
2023-03-16T02:26:52.267Z,940.67
2023-03-16T02:27:52.264Z,940.62
2023-03-16T02:28:52.243Z,940.61
2023-03-16T02:29:52.270Z,940.64
2023-03-16T02:30:52.234Z,940.73
2023-03-16T02:31:52.539Z,940.71
2023-03-16T02:32:52.225Z,940.68
2023-03-16T02:33:52.198Z,940.69
2023-03-16T02:34:53.173Z,940.69
2023-03-16T02:35:52.340Z,940.67
2023-03-16T02:36:52.190Z,940.66
2023-03-16T02:37:52.200Z,940.63
2023-03-16T02:38:52.132Z,940.70
2023-03-16T02:39:52.149Z,940.71
2023-03-16T02:40:52.122Z,940.69
2023-03-16T02:41:52.237Z,940.73
2023-03-16T02:42:52.143Z,940.73
2023-03-16T02:43:52.173Z,940.71
2023-03-16T02:44:52.065Z,940.79
2023-03-16T02:45:52.077Z,940.78
2023-03-16T02:46:56.712Z,940.78
2023-03-16T02:47:52.105Z,940.74
2023-03-16T02:48:52.147Z,940.79
2023-03-16T02:49:52.058Z,940.78
2023-03-16T02:50:52.009Z,940.78
2023-03-16T02:51:52.070Z,940.78
2023-03-16T02:52:51.994Z,940.76
2023-03-16T02:53:52.006Z,940.74
2023-03-16T02:54:51.975Z,940.76
2023-03-16T02:55:52.021Z,940.76
2023-03-16T02:56:52.026Z,940.76
2023-03-16T02:57:52.054Z,940.77
2023-03-16T02:58:52.658Z,940.79
2023-03-16T02:59:52.046Z,940.82
2023-03-16T03:00:51.949Z,940.85
2023-03-16T03:01:51.913Z,940.83
2023-03-16T03:02:51.895Z,940.83
2023-03-16T03:03:52.651Z,940.81
2023-03-16T03:04:51.887Z,940.75
2023-03-16T03:05:52.101Z,940.74
2023-03-16T03:06:51.863Z,940.78
2023-03-16T03:07:51.861Z,940.78
2023-03-16T03:08:51.869Z,940.76
2023-03-16T03:09:51.825Z,940.78
2023-03-16T03:10:51.916Z,940.78
2023-03-16T03:11:51.861Z,940.74
2023-03-16T03:12:51.929Z,940.79
2023-03-16T03:13:51.784Z,940.78
2023-03-16T03:14:51.770Z,940.81
2023-03-16T03:15:51.874Z,940.80
2023-03-16T03:16:51.869Z,940.81
2023-03-16T03:17:51.868Z,940.79
2023-03-16T03:18:51.847Z,940.82
2023-03-16T03:19:51.737Z,940.83
2023-03-16T03:20:51.731Z,940.84
2023-03-16T03:21:51.700Z,940.81
2023-03-16T03:22:51.728Z,940.81
2023-03-16T03:23:51.719Z,940.79
2023-03-16T03:24:51.683Z,940.76
2023-03-16T03:25:51.665Z,940.76
2023-03-16T03:26:51.794Z,940.75
2023-03-16T03:27:51.777Z,940.72
2023-03-16T03:28:51.643Z,940.75
2023-03-16T03:29:51.656Z,940.73
2023-03-16T03:30:51.628Z,940.74
2023-03-16T03:31:51.716Z,940.67
2023-03-16T03:32:51.790Z,940.68
2023-03-16T03:33:51.747Z,940.69
2023-03-16T03:34:51.594Z,940.64
2023-03-16T03:35:51.693Z,940.61
2023-03-16T03:36:51.560Z,940.61
2023-03-16T03:37:51.542Z,940.58
2023-03-16T03:38:51.575Z,940.55
2023-03-16T03:39:51.540Z,940.48
2023-03-16T03:40:51.564Z,940.52
2023-03-16T03:41:51.567Z,940.51
2023-03-16T03:42:51.506Z,940.50
2023-03-16T03:43:51.538Z,940.46
2023-03-16T03:44:51.514Z,940.47
2023-03-16T03:45:51.523Z,940.45
2023-03-16T03:46:51.619Z,940.53
2023-03-16T03:47:51.481Z,940.53
2023-03-16T03:48:51.485Z,940.51
2023-03-16T03:49:51.486Z,940.51
2023-03-16T03:50:51.410Z,940.51
2023-03-16T03:51:51.401Z,940.55
2023-03-16T03:52:51.402Z,940.54
2023-03-16T03:53:51.401Z,940.55
2023-03-16T03:54:51.372Z,940.54
2023-03-16T03:55:51.416Z,940.57
2023-03-16T03:56:51.362Z,940.58
2023-03-16T03:57:51.356Z,940.57
2023-03-16T03:58:51.340Z,940.58
2023-03-16T03:59:51.357Z,940.57
2023-03-16T04:00:51.328Z,940.51
2023-03-16T04:01:51.460Z,940.53
2023-03-16T04:02:51.403Z,940.53
2023-03-16T04:03:51.382Z,940.54
2023-03-16T04:04:51.296Z,940.47
2023-03-16T04:05:51.291Z,940.47
2023-03-16T04:06:51.373Z,940.50
2023-03-16T04:07:51.373Z,940.46
2023-03-16T04:08:51.380Z,940.47
2023-03-16T04:09:51.255Z,940.46
2023-03-16T04:10:51.204Z,940.44
2023-03-16T04:11:51.239Z,940.45
2023-03-16T04:12:51.236Z,940.44
2023-03-16T04:13:51.193Z,940.48
2023-03-16T04:14:51.268Z,940.48
2023-03-16T04:15:51.156Z,940.48
2023-03-16T04:16:51.203Z,940.50
2023-03-16T04:17:51.231Z,940.51
2023-03-16T04:18:58.753Z,940.50
2023-03-16T04:19:51.130Z,940.58
2023-03-16T04:20:51.129Z,940.56
2023-03-16T04:21:51.125Z,940.52
2023-03-16T04:22:51.116Z,940.52
2023-03-16T04:23:52.095Z,940.52
2023-03-16T04:24:51.075Z,940.54
2023-03-16T04:25:51.115Z,940.56
2023-03-16T04:26:51.107Z,940.56
2023-03-16T04:27:51.076Z,940.60
2023-03-16T04:28:51.048Z,940.61
2023-03-16T04:29:51.038Z,940.57
2023-03-16T04:30:51.068Z,940.59
2023-03-16T04:31:51.002Z,940.58
2023-03-16T04:32:51.145Z,940.58
2023-03-16T04:33:51.057Z,940.60
2023-03-16T04:34:50.971Z,940.58
2023-03-16T04:35:51.009Z,940.55
2023-03-16T04:36:50.969Z,940.47
2023-03-16T04:37:50.997Z,940.45
2023-03-16T04:38:51.033Z,940.43
2023-03-16T04:39:51.019Z,940.40
2023-03-16T04:40:50.908Z,940.41
2023-03-16T04:41:50.900Z,940.40
2023-03-16T04:42:50.931Z,940.42
2023-03-16T04:43:50.960Z,940.39
2023-03-16T04:44:50.883Z,940.36
2023-03-16T04:45:50.963Z,940.35
2023-03-16T04:46:50.856Z,940.35
2023-03-16T04:47:50.884Z,940.30
2023-03-16T04:48:50.955Z,940.34
2023-03-16T04:49:50.897Z,940.27
2023-03-16T04:50:50.833Z,940.29
2023-03-16T04:51:50.836Z,940.30
2023-03-16T04:52:50.877Z,940.29
2023-03-16T04:53:50.868Z,940.28
2023-03-16T04:54:50.773Z,940.33
2023-03-16T04:55:50.805Z,940.29
2023-03-16T04:56:50.763Z,940.29
2023-03-16T04:57:50.759Z,940.29
2023-03-16T04:58:50.735Z,940.29
2023-03-16T04:59:50.786Z,940.28
2023-03-16T05:00:50.736Z,940.28
2023-03-16T05:01:50.824Z,940.25
2023-03-16T05:02:50.697Z,940.25
2023-03-16T05:03:50.712Z,940.23
2023-03-16T05:04:50.749Z,940.23
2023-03-16T05:05:50.772Z,940.26
2023-03-16T05:06:50.678Z,940.26
2023-03-16T05:07:50.664Z,940.28
2023-03-16T05:08:50.634Z,940.29
2023-03-16T05:09:50.705Z,940.34
2023-03-16T05:10:50.621Z,940.32
2023-03-16T05:11:50.608Z,940.28
2023-03-16T05:12:50.594Z,940.29
2023-03-16T05:13:50.576Z,940.29
2023-03-16T05:14:50.598Z,940.24
2023-03-16T05:15:50.674Z,940.28
2023-03-16T05:16:50.568Z,940.24
2023-03-16T05:17:50.581Z,940.23
2023-03-16T05:18:50.533Z,940.31
2023-03-16T05:19:50.557Z,940.26
2023-03-16T05:20:50.542Z,940.27
2023-03-16T05:21:50.597Z,940.25
2023-03-16T05:22:50.504Z,940.30
2023-03-16T05:23:50.488Z,940.26
2023-03-16T05:24:50.473Z,940.24
2023-03-16T05:25:50.566Z,940.26
2023-03-16T05:26:50.502Z,940.22
2023-03-16T05:27:50.456Z,940.25
2023-03-16T05:28:50.471Z,940.26
2023-03-16T05:29:50.495Z,940.28
2023-03-16T05:30:50.452Z,940.29
2023-03-16T05:31:50.425Z,940.34
2023-03-16T05:32:50.546Z,940.34
2023-03-16T05:33:50.441Z,940.39
2023-03-16T05:34:50.382Z,940.34
2023-03-16T05:35:50.442Z,940.34
2023-03-16T05:36:51.206Z,940.35
2023-03-16T05:37:50.351Z,940.37
2023-03-16T05:38:50.379Z,940.26
2023-03-16T05:39:50.331Z,940.25
2023-03-16T05:40:50.320Z,940.24
2023-03-16T05:41:50.389Z,940.21
2023-03-16T05:42:50.331Z,940.22
2023-03-16T05:43:50.309Z,940.18
2023-03-16T05:44:50.317Z,940.22
2023-03-16T05:45:50.284Z,940.20
2023-03-16T05:46:50.297Z,940.22
2023-03-16T05:47:50.308Z,940.14
2023-03-16T05:48:50.253Z,940.14
2023-03-16T05:49:50.256Z,940.11
2023-03-16T05:50:50.271Z,940.13
2023-03-16T05:51:50.243Z,940.08
2023-03-16T05:52:50.213Z,940.12
2023-03-16T05:53:50.223Z,940.10
2023-03-16T05:54:50.884Z,940.11
2023-03-16T05:55:50.186Z,940.13
2023-03-16T05:56:50.171Z,940.10
2023-03-16T05:57:50.198Z,940.07
2023-03-16T05:58:50.200Z,940.07
2023-03-16T05:59:50.144Z,940.08
2023-03-16T06:00:50.153Z,940.09
2023-03-16T06:01:50.174Z,940.06
2023-03-16T06:02:50.164Z,940.09
2023-03-16T06:03:50.205Z,940.12
2023-03-16T06:04:50.133Z,940.07
2023-03-16T06:05:50.110Z,940.04
2023-03-16T06:06:50.236Z,940.07
2023-03-16T06:07:50.111Z,940.05
2023-03-16T06:08:50.107Z,940.05
2023-03-16T06:09:50.147Z,940.04
2023-03-16T06:10:50.049Z,940.06
2023-03-16T06:11:50.023Z,940.09
2023-03-16T06:12:50.057Z,940.10
2023-03-16T06:13:50.053Z,940.15
2023-03-16T06:14:50.083Z,940.08
2023-03-16T06:15:50.162Z,940.16
2023-03-16T06:17:00.827Z,940.10
2023-03-16T06:17:49.972Z,940.11
2023-03-16T06:18:50.004Z,940.11
2023-03-16T06:19:49.954Z,940.09
2023-03-16T06:20:50.026Z,940.06
2023-03-16T06:21:49.946Z,940.07
2023-03-16T06:22:49.928Z,940.11
2023-03-16T06:23:49.912Z,940.13
2023-03-16T06:24:49.965Z,940.16
2023-03-16T06:25:49.937Z,940.10
2023-03-16T06:26:49.997Z,940.15
2023-03-16T06:27:49.858Z,940.17
2023-03-16T06:28:50.022Z,940.16
2023-03-16T06:29:49.890Z,940.12
2023-03-16T06:30:49.827Z,940.17
2023-03-16T06:31:49.973Z,940.17
2023-03-16T06:32:49.909Z,940.23
2023-03-16T06:33:49.799Z,940.24
2023-03-16T06:34:49.806Z,940.18
2023-03-16T06:35:49.875Z,940.15
2023-03-16T06:36:49.780Z,940.19
2023-03-16T06:37:49.795Z,940.19
2023-03-16T06:38:49.823Z,940.16
2023-03-16T06:39:49.754Z,940.21
2023-03-16T06:40:49.761Z,940.20
2023-03-16T06:41:49.799Z,940.14
2023-03-16T06:42:57.276Z,940.16
2023-03-16T06:43:49.712Z,940.13
2023-03-16T06:44:49.689Z,940.08
2023-03-16T06:45:49.964Z,940.05
2023-03-16T06:46:49.690Z,940.11
2023-03-16T06:47:49.665Z,940.06
2023-03-16T06:48:49.677Z,939.99
2023-03-16T06:49:49.657Z,939.99
2023-03-16T06:50:49.644Z,939.99
2023-03-16T06:51:49.656Z,939.94
2023-03-16T06:52:49.640Z,939.95
2023-03-16T06:53:49.650Z,939.93
2023-03-16T06:54:49.587Z,939.88
2023-03-16T06:55:49.591Z,939.90
2023-03-16T06:56:49.592Z,939.86
2023-03-16T06:57:49.591Z,939.90
2023-03-16T06:58:49.551Z,939.89
2023-03-16T06:59:49.574Z,939.88
2023-03-16T07:00:49.613Z,939.87
2023-03-16T07:01:49.565Z,939.80
2023-03-16T07:02:49.519Z,939.81
2023-03-16T07:03:49.546Z,939.85
2023-03-16T07:04:49.517Z,939.76
2023-03-16T07:05:49.475Z,939.77
2023-03-16T07:06:49.507Z,939.74
2023-03-16T07:07:49.462Z,939.77
2023-03-16T07:08:49.472Z,939.78
2023-03-16T07:09:49.465Z,939.73
2023-03-16T07:10:49.474Z,939.71
2023-03-16T07:11:49.411Z,939.68
2023-03-16T07:12:49.422Z,939.65
2023-03-16T07:13:49.387Z,939.65
2023-03-16T07:14:52.398Z,939.67
2023-03-16T07:15:49.482Z,939.65
2023-03-16T07:16:49.453Z,939.71
2023-03-16T07:17:49.364Z,939.60
2023-03-16T07:18:49.360Z,939.64
2023-03-16T07:19:49.329Z,939.65
2023-03-16T07:20:49.343Z,939.68
2023-03-16T07:21:49.310Z,939.65
2023-03-16T07:22:49.299Z,939.67
2023-03-16T07:23:49.287Z,939.60
2023-03-16T07:24:49.316Z,939.58
2023-03-16T07:25:49.254Z,939.57
2023-03-16T07:26:49.274Z,939.59
2023-03-16T07:27:49.232Z,939.61
2023-03-16T07:28:49.282Z,939.55
2023-03-16T07:29:49.243Z,939.54
2023-03-16T07:31:02.831Z,939.48
2023-03-16T07:31:50.314Z,939.49
2023-03-16T07:32:49.255Z,939.51
2023-03-16T07:33:49.200Z,939.47
2023-03-16T07:34:49.171Z,939.52
2023-03-16T07:35:49.186Z,939.44
2023-03-16T07:36:49.146Z,939.48
2023-03-16T07:37:49.171Z,939.45
2023-03-16T07:38:49.210Z,939.46
2023-03-16T07:39:49.112Z,939.50
2023-03-16T07:40:49.111Z,939.44
2023-03-16T07:41:49.122Z,939.48
2023-03-16T07:42:49.103Z,939.46
2023-03-16T07:43:49.169Z,939.45
2023-03-16T07:44:51.599Z,939.40
2023-03-16T07:45:49.095Z,939.40
2023-03-16T07:46:49.081Z,939.42
2023-03-16T07:47:49.021Z,939.44
2023-03-16T07:48:49.037Z,939.42
2023-03-16T07:49:49.043Z,939.42
2023-03-16T07:50:49.014Z,939.44
2023-03-16T07:51:49.086Z,939.43
2023-03-16T07:52:48.994Z,939.44
2023-03-16T07:53:48.973Z,939.42
2023-03-16T07:54:48.957Z,939.41
2023-03-16T07:55:48.949Z,939.43
2023-03-16T07:56:49.843Z,939.44
2023-03-16T07:57:48.935Z,939.48
2023-03-16T07:58:49.732Z,939.48
2023-03-16T07:59:48.937Z,939.44
2023-03-16T08:00:48.899Z,939.48
2023-03-16T08:01:48.899Z,939.42
2023-03-16T08:02:49.007Z,939.45
2023-03-16T08:03:49.063Z,939.42
2023-03-16T08:04:48.880Z,939.42
2023-03-16T08:05:48.941Z,939.42
2023-03-16T08:06:48.826Z,939.48
2023-03-16T08:07:48.835Z,939.43
2023-03-16T08:08:48.819Z,939.45
2023-03-16T08:09:48.803Z,939.41
2023-03-16T08:10:48.820Z,939.41
2023-03-16T08:11:48.787Z,939.43
2023-03-16T08:12:48.828Z,939.46
2023-03-16T08:13:49.242Z,939.53
2023-03-16T08:14:48.840Z,939.53
2023-03-16T08:15:48.815Z,939.54
2023-03-16T08:16:48.720Z,939.51
2023-03-16T08:17:48.720Z,939.49
2023-03-16T08:18:48.699Z,939.54
2023-03-16T08:19:48.731Z,939.60
2023-03-16T08:20:48.676Z,939.58
2023-03-16T08:22:00.763Z,939.61
2023-03-16T08:22:49.656Z,939.56
2023-03-16T08:23:48.706Z,939.59
2023-03-16T08:24:48.697Z,939.62
2023-03-16T08:25:48.645Z,939.55
2023-03-16T08:26:48.618Z,939.54
2023-03-16T08:27:48.612Z,939.47
2023-03-16T08:28:48.669Z,939.48
2023-03-16T08:29:48.753Z,939.48
2023-03-16T08:30:48.650Z,939.47
2023-03-16T08:31:48.573Z,939.50
2023-03-16T08:32:48.596Z,939.46
2023-03-16T08:33:48.551Z,939.51
2023-03-16T08:34:48.529Z,939.50
2023-03-16T08:35:48.777Z,939.43
2023-03-16T08:36:48.579Z,939.45
2023-03-16T08:37:48.533Z,939.44
2023-03-16T08:39:03.875Z,939.46
2023-03-16T08:39:49.479Z,939.43
2023-03-16T08:40:48.624Z,939.44
2023-03-16T08:41:48.487Z,939.36
2023-03-16T08:42:48.465Z,939.42
2023-03-16T08:43:48.439Z,939.40
2023-03-16T08:44:48.445Z,939.37
2023-03-16T08:45:48.416Z,939.38
2023-03-16T08:46:48.480Z,939.42
2023-03-16T08:47:48.427Z,939.42
2023-03-16T08:48:48.404Z,939.35
2023-03-16T08:49:48.365Z,939.38
2023-03-16T08:50:48.373Z,939.35
2023-03-16T08:51:48.388Z,939.35
2023-03-16T08:52:48.356Z,939.40
2023-03-16T08:53:48.403Z,939.34
2023-03-16T08:55:01.841Z,939.40
2023-03-16T08:55:49.321Z,939.38
2023-03-16T08:56:48.318Z,939.39
2023-03-16T08:57:48.300Z,939.34
2023-03-16T08:58:50.457Z,939.30
2023-03-16T08:59:48.258Z,939.27
2023-03-16T09:00:50.244Z,939.32
2023-03-16T09:01:48.322Z,939.33
2023-03-16T09:02:48.251Z,939.29
2023-03-16T09:03:48.342Z,939.30
2023-03-16T09:04:48.241Z,939.30
2023-03-16T09:05:48.259Z,939.30
2023-03-16T09:06:55.803Z,939.30
2023-03-16T09:07:49.218Z,939.23
2023-03-16T09:08:48.224Z,939.28
2023-03-16T09:09:48.210Z,939.23
2023-03-16T09:10:48.174Z,939.23
2023-03-16T09:11:48.147Z,939.27
2023-03-16T09:12:48.129Z,939.26
2023-03-16T09:13:48.134Z,939.33
2023-03-16T09:14:48.145Z,939.35
2023-03-16T09:15:48.258Z,939.32
2023-03-16T09:16:48.091Z,939.34
2023-03-16T09:17:48.088Z,939.28
2023-03-16T09:18:48.080Z,939.32
2023-03-16T09:19:51.537Z,939.24
2023-03-16T09:20:48.078Z,939.21
2023-03-16T09:21:48.048Z,939.22
2023-03-16T09:22:48.039Z,939.20
2023-03-16T09:23:48.015Z,939.17
2023-03-16T09:24:48.041Z,939.19
2023-03-16T09:25:48.069Z,939.14
2023-03-16T09:26:48.034Z,939.17
2023-03-16T09:27:47.974Z,939.11
2023-03-16T09:28:47.968Z,939.12
2023-03-16T09:29:47.950Z,939.13
2023-03-16T09:30:47.947Z,939.05
2023-03-16T09:31:48.044Z,939.07
2023-03-16T09:32:47.980Z,939.03
2023-03-16T09:33:47.968Z,939.02
2023-03-16T09:34:47.933Z,938.99
2023-03-16T09:35:48.316Z,938.95
2023-03-16T09:36:47.880Z,938.97
2023-03-16T09:38:04.876Z,938.97
2023-03-16T09:38:48.878Z,938.97
2023-03-16T09:39:47.902Z,938.93
2023-03-16T09:40:47.897Z,938.94
2023-03-16T09:41:47.854Z,938.95
2023-03-16T09:42:47.823Z,938.88
2023-03-16T09:43:47.822Z,938.93
2023-03-16T09:44:47.834Z,938.92
2023-03-16T09:45:47.909Z,938.89
2023-03-16T09:46:47.815Z,938.87
2023-03-16T09:47:47.772Z,938.88
2023-03-16T09:48:47.758Z,938.91
2023-03-16T09:49:47.761Z,938.92
2023-03-16T09:50:49.452Z,938.88
2023-03-16T09:51:47.806Z,938.90
2023-03-16T09:52:47.745Z,938.90
2023-03-16T09:53:47.754Z,938.90
2023-03-16T09:54:47.706Z,938.89
2023-03-16T09:55:47.709Z,938.84
2023-03-16T09:56:47.772Z,938.84
2023-03-16T09:57:47.701Z,938.83
2023-03-16T09:58:47.675Z,938.83
2023-03-16T09:59:47.645Z,938.85
2023-03-16T10:00:47.689Z,938.85
2023-03-16T10:01:47.641Z,938.86
2023-03-16T10:02:47.670Z,938.83
2023-03-16T10:03:47.662Z,938.82
2023-03-16T10:04:47.615Z,938.79
2023-03-16T10:06:08.623Z,938.77
2023-03-16T10:07:08.623Z,938.79
2023-03-16T10:08:08.589Z,938.81
2023-03-16T10:08:47.568Z,938.76
2023-03-16T10:09:47.557Z,938.79
2023-03-16T10:10:47.532Z,938.76
2023-03-16T10:11:47.540Z,938.77
2023-03-16T10:12:47.523Z,938.82
2023-03-16T10:14:57.933Z,938.76
2023-03-16T10:15:57.823Z,938.78
2023-03-16T10:16:57.986Z,938.78
2023-03-16T10:17:57.804Z,938.75
2023-03-16T10:18:57.791Z,938.73
2023-03-16T10:19:57.810Z,938.73
2023-03-16T10:20:57.773Z,938.69
2023-03-16T10:21:57.789Z,938.71
2023-03-16T10:22:57.755Z,938.69
2023-03-16T10:23:57.750Z,938.68
2023-03-16T10:24:57.759Z,938.68
2023-03-16T10:25:57.711Z,938.67
2023-03-16T10:26:57.715Z,938.65
2023-03-16T10:27:57.707Z,938.62
2023-03-16T10:28:57.720Z,938.63
2023-03-16T10:29:57.717Z,938.62
2023-03-16T10:30:58.492Z,938.59
2023-03-16T10:31:57.729Z,938.64
2023-03-16T10:32:57.797Z,938.62
2023-03-16T10:33:58.009Z,938.59
2023-03-16T10:34:57.632Z,938.58
2023-03-16T10:35:57.612Z,938.63
2023-03-16T10:36:57.611Z,938.60
2023-03-16T10:37:57.591Z,938.60
2023-03-16T10:38:57.586Z,938.60
2023-03-16T10:39:57.608Z,938.58
2023-03-16T10:40:57.595Z,938.54
2023-03-16T10:41:57.556Z,938.47
2023-03-16T10:42:57.563Z,938.46
2023-03-16T10:43:57.631Z,938.44
2023-03-16T10:44:57.550Z,938.45
2023-03-16T10:45:57.601Z,938.37
2023-03-16T10:46:57.647Z,938.37
2023-03-16T10:47:57.491Z,938.38
2023-03-16T10:48:57.512Z,938.35
2023-03-16T10:49:57.497Z,938.39
2023-03-16T10:50:57.539Z,938.35
2023-03-16T10:51:58.067Z,938.38
2023-03-16T10:52:58.340Z,938.37
2023-03-16T10:53:57.473Z,938.32
2023-03-16T10:54:57.490Z,938.31
2023-03-16T10:55:57.448Z,938.25
2023-03-16T10:56:57.423Z,938.21
2023-03-16T10:57:57.420Z,938.16
2023-03-16T10:58:57.390Z,938.17
2023-03-16T10:59:57.457Z,938.19
2023-03-16T11:00:57.448Z,938.15
2023-03-16T11:01:57.390Z,938.17
2023-03-16T11:02:57.415Z,938.11
2023-03-16T11:03:57.345Z,938.09
2023-03-16T11:04:57.582Z,938.09
2023-03-16T11:05:57.360Z,938.09
2023-03-16T11:06:57.336Z,938.06
2023-03-16T11:07:57.289Z,938.03
2023-03-16T11:08:57.304Z,937.99
2023-03-16T11:09:57.292Z,937.95
2023-03-16T11:10:57.321Z,937.95
2023-03-16T11:11:57.290Z,937.91
2023-03-16T11:13:00.349Z,937.98
2023-03-16T11:13:57.283Z,937.98
2023-03-16T11:14:57.259Z,937.95
2023-03-16T11:15:57.230Z,937.97
2023-03-16T11:16:57.331Z,937.99
2023-03-16T11:17:57.225Z,937.97
2023-03-16T11:18:57.321Z,937.98
2023-03-16T11:19:57.178Z,937.82
2023-03-16T11:20:57.174Z,937.84
2023-03-16T11:21:57.149Z,937.79
2023-03-16T11:22:57.199Z,937.78
2023-03-16T11:23:57.134Z,937.73
2023-03-16T11:24:57.164Z,937.72
2023-03-16T11:25:57.113Z,937.72
2023-03-16T11:26:57.139Z,937.70
2023-03-16T11:27:57.095Z,937.74
2023-03-16T11:28:57.091Z,937.73
2023-03-16T11:29:57.086Z,937.74
2023-03-16T11:30:57.590Z,937.80
2023-03-16T11:31:57.080Z,937.73
2023-03-16T11:32:57.083Z,937.75
2023-03-16T11:33:57.030Z,937.76
2023-03-16T11:34:57.082Z,937.77
2023-03-16T11:35:59.415Z,937.72
2023-03-16T11:36:57.046Z,937.73
2023-03-16T11:37:57.094Z,937.71
2023-03-16T11:38:56.978Z,937.67
2023-03-16T11:39:56.980Z,937.68
2023-03-16T11:40:57.003Z,937.66
2023-03-16T11:41:56.958Z,937.61
2023-03-16T11:42:57.588Z,937.66
2023-03-16T11:43:57.068Z,937.68
2023-03-16T11:44:56.926Z,937.64
2023-03-16T11:45:56.960Z,937.66
2023-03-16T11:46:56.923Z,937.58
2023-03-16T11:47:56.874Z,937.58
2023-03-16T11:48:56.885Z,937.57
2023-03-16T11:49:56.942Z,937.53
2023-03-16T11:50:56.906Z,937.50
2023-03-16T11:51:56.833Z,937.52
2023-03-16T11:52:56.829Z,937.54
2023-03-16T11:53:57.072Z,937.51
2023-03-16T11:54:56.882Z,937.57
2023-03-16T11:55:56.837Z,937.45
2023-03-16T11:56:56.822Z,937.43
2023-03-16T11:57:56.863Z,937.45
2023-03-16T11:58:56.762Z,937.38
2023-03-16T12:00:01.497Z,937.38
2023-03-16T12:00:58.053Z,937.34
2023-03-16T12:02:00.756Z,937.33
2023-03-16T12:02:56.850Z,937.35
2023-03-16T12:03:56.751Z,937.34
2023-03-16T12:04:56.703Z,937.31
2023-03-16T12:05:56.699Z,937.36
2023-03-16T12:06:56.758Z,937.38
2023-03-16T12:07:56.694Z,937.39
2023-03-16T12:08:56.663Z,937.39
2023-03-16T12:09:56.637Z,937.36
2023-03-16T12:10:56.665Z,937.36
2023-03-16T12:11:56.664Z,937.37
2023-03-16T12:12:56.620Z,937.42
2023-03-16T12:13:56.627Z,937.42
2023-03-16T12:14:56.671Z,937.40
2023-03-16T12:15:56.599Z,937.43
2023-03-16T12:16:56.640Z,937.45
2023-03-16T12:17:56.560Z,937.42
2023-03-16T12:18:56.635Z,937.40
2023-03-16T12:19:57.531Z,937.41
2023-03-16T12:20:56.538Z,937.44
2023-03-16T12:21:56.510Z,937.43
2023-03-16T12:22:56.592Z,937.37
2023-03-16T12:23:56.588Z,937.40
2023-03-16T12:24:56.487Z,937.37
2023-03-16T12:25:58.133Z,937.39
2023-03-16T12:26:56.453Z,937.38
2023-03-16T12:27:56.445Z,937.36
2023-03-16T12:28:56.473Z,937.32
2023-03-16T12:29:56.468Z,937.32